Flagstaff, AZ

9:10 AM MST en Octubre 24, 2014 (GMT -0700)
Bow and Arrow | Change Station
CLOSE
Current Station
Estación meteorológica personal
Location: Flagstaff, AZ
Altura: 6900 ft
Estaciones meteorológicas cercanas

Alt 6900 ft 35.16 °N, 111.66 °W | Updated 15 seconds ago

Clear
Despejado
53.1 ° F
Sensación térmica 53.1 ° F
N
0.0
Viento Variable Viento desde ONO
Gusts 0.0 mph

Hoy
Alta -- | Baja -- ° F
--% Posibilidad de precipitaciones
Ayer
Alta -- | Baja -- ° F
Precip. -- pul
6:40 AM 5:40 PM
Luna nueva, 1% visible
Presión 30.22 pul
Visibilidad 10.0 Millas
Nubes Despejado
Punto de rocío 28 ° F
Humedad 37%
Precipitaciones 0.00 pul
Espesor de la nieve 0 in
UV 2 de una escala de 12
Polen 4.40 de una escala de 12
Calidad del aire No disponible.
Flu Activity No Activity
METAR KFLG 241557Z 00000KT 10SM CLR 16/04 A3041 RMK AO2 SLP231 T01610044

More Conditions Fewer Conditions

Presión 30.22 pul
Visibilidad 10.0 Millas
Nubes Despejado
Punto de rocío 28 ° F
Humedad 37%
Precipitaciones 0.00 pul
Espesor de la nieve 0 in
UV 2 de una escala de 12
Polen 4.40 de una escala de 12
Calidad del aire No disponible.
Flu Activity No Activity
METAR KFLG 241557Z 00000KT 10SM CLR 16/04 A3041 RMK AO2 SLP231 T01610044

More Conditions Fewer Conditions

10-Day Weather Forecast

Almanac

Astronomía

Oct. 24, 2014 Salida Puesta
Hora real 6:40 AM MST 5:40 PM MST
Crepúsculo civil 6:14 AM MST 6:06 PM MST
Crepúsculo náutico 5:44 AM MST 6:35 PM MST
Crepúsculo astronómico 5:15 AM MST 7:05 PM MST
Luna 7:21 AM MST 6:24 PM MST
Horas de luz 11h 51m
Horas de luz
10h 59m
Tomorrow will be 2m 2s shorter.
Luna nueva, 1% of the Moon is Illuminated
Hoy
Luna nueva
Oct 30
Cuarto creciente
Nov 6
Luna llena
Nov 14
Cuarto menguante
Nov 22
Nueva

Extremos de hoy

Máximos del estado Bajos del estado

Community

WunderPhotos

Upload Photos

1,764,600 ¡fotos cargadas!

WunderBlogs® & News

Nearby

Grosos de nieve

Estación Profundido Altura
Mormon Mountain 0 in 7500 ft
White Horse Lake 1 in 7180 ft
Happy Jack 0 in 7630 ft
Snowslide Canyon 0 in 9730 ft
Baker Butte 0 in 7300 ft

Actividad de terremotos

Ciudad Distance Mag. Tiempo y dato
No hay informes recientes de la actividad sísmica.
Magnitud mínima muestra es 2,5.

Temperaturas de aguas costeras

Lugar Temperatura
Sin partes meteorológicos de las estaciones

Estaciones meteorológicas cercanas